Time;durP1;ratioP1;P1;durP2;ratioP2;P2;SDS_P1;SDS_P2;PMS_P1;PMS_P2;Temp;Humidity;BMP_temperature;BMP_pressure;BME280_temperature;BME280_humidity;BME280_pressure;Samples;Min_cycle;Max_cycle;Signal;HPM_P1;HPM_P2
2021/05/23 00:01:03;;;;;;;0.93;0.68;;;12.20;69.30;;;;;;5044834;28;20128;-71
2021/05/23 00:03:29;;;;;;;3.15;0.82;;;12.20;69.50;;;;;;5036204;28;20518;-71
2021/05/23 00:05:55;;;;;;;1.88;0.70;;;12.20;69.60;;;;;;5050362;28;20029;-71
2021/05/23 00:08:21;;;;;;;1.10;1.05;;;12.10;69.70;;;;;;5034620;28;20029;-71
2021/05/23 00:10:47;;;;;;;3.45;0.90;;;12.10;69.90;;;;;;5038587;28;20122;-71
2021/05/23 00:13:15;;;;;;;1.73;0.65;;;12.10;70.10;;;;;;5041539;28;20033;-71
2021/05/23 00:15:52;;;;;;;3.00;0.80;;;12.00;70.60;;;;;;5049274;28;20029;-71
2021/05/23 00:18:18;;;;;;;1.77;0.70;;;12.00;71.10;;;;;;5041429;28;20109;-72
2021/05/23 00:20:45;;;;;;;2.15;0.68;;;12.00;71.50;;;;;;5043633;28;20079;-71
2021/05/23 00:23:11;;;;;;;3.20;0.90;;;11.90;71.60;;;;;;5050662;28;20099;-71
2021/05/23 00:25:38;;;;;;;1.15;0.75;;;11.90;71.90;;;;;;5049875;28;20032;-71
2021/05/23 00:28:04;;;;;;;3.00;0.80;;;11.90;72.50;;;;;;5049144;28;20045;-72
2021/05/23 00:30:31;;;;;;;1.52;0.60;;;11.90;72.30;;;;;;5035968;28;20037;-71
2021/05/23 00:32:57;;;;;;;5.40;0.80;;;11.80;72.30;;;;;;5040226;28;20059;-71
2021/05/23 00:35:22;;;;;;;2.25;0.80;;;11.80;72.40;;;;;;5038594;28;20025;-71
2021/05/23 00:37:49;;;;;;;2.33;0.90;;;11.80;72.50;;;;;;5039196;28;20390;-72
2021/05/23 00:40:15;;;;;;;2.00;0.60;;;11.80;72.30;;;;;;5047164;28;20379;-71
2021/05/23 00:42:41;;;;;;;3.47;0.70;;;11.80;72.50;;;;;;5038436;28;20076;-71
2021/05/23 00:45:08;;;;;;;2.47;0.90;;;11.80;72.60;;;;;;5042387;28;20033;-71
2021/05/23 00:47:34;;;;;;;8.55;0.90;;;11.80;72.80;;;;;;5041194;28;20044;-71
2021/05/23 00:50:00;;;;;;;1.27;0.63;;;11.80;72.90;;;;;;5036285;28;20038;-72
2021/05/23 00:52:27;;;;;;;1.88;0.70;;;11.80;73.10;;;;;;5041498;28;20514;-72
2021/05/23 00:54:53;;;;;;;1.17;0.70;;;11.80;73.10;;;;;;5047160;28;20032;-71
2021/05/23 00:57:18;;;;;;;2.17;0.60;;;11.80;73.50;;;;;;5045451;28;20053;-72
2021/05/23 00:59:44;;;;;;;1.77;0.70;;;11.70;73.60;;;;;;5032295;28;20029;-71
2021/05/23 01:02:10;;;;;;;2.50;1.30;;;11.70;74.30;;;;;;5044061;28;20052;-71
2021/05/23 01:04:40;;;;;;;1.55;0.50;;;11.70;74.20;;;;;;5026907;28;20091;-71
2021/05/23 01:07:06;;;;;;;3.10;0.60;;;11.70;74.70;;;;;;5044637;28;20112;-71
2021/05/23 01:09:31;;;;;;;1.75;0.73;;;11.60;75.00;;;;;;5036164;28;20033;-71
2021/05/23 01:12:24;;;;;;;2.28;0.82;;;11.60;75.30;;;;;;5039859;28;20449;-71
2021/05/23 01:15:01;;;;;;;1.33;0.65;;;11.60;75.80;;;;;;5048853;28;20031;-70
2021/05/23 01:17:37;;;;;;;1.33;0.70;;;11.50;76.10;;;;;;5040764;28;20033;-72
2021/05/23 01:20:11;;;;;;;0.95;0.45;;;11.50;76.50;;;;;;5050059;28;20025;-71
2021/05/23 01:22:39;;;;;;;2.42;0.73;;;11.50;76.90;;;;;;5050443;28;20033;-70
2021/05/23 01:25:17;;;;;;;3.50;0.70;;;11.50;77.20;;;;;;5036191;28;20032;-71
2021/05/23 01:27:48;;;;;;;4.00;1.23;;;11.50;77.90;;;;;;5046593;28;20037;-71
2021/05/23 01:30:19;;;;;;;;;;;11.40;78.40;;;;;;5041783;28;20046;-71
2021/05/23 01:32:47;;;;;;;1.92;0.60;;;11.40;79.00;;;;;;5037367;28;19916;-71
2021/05/23 01:35:21;;;;;;;2.00;0.82;;;11.40;79.30;;;;;;5024805;28;20056;-72
2021/05/23 01:37:52;;;;;;;1.75;0.65;;;11.40;79.90;;;;;;5044022;28;20040;-71
2021/05/23 01:40:19;;;;;;;2.50;0.60;;;11.40;80.50;;;;;;5040648;28;20034;-72
2021/05/23 01:42:47;;;;;;;1.40;0.57;;;11.40;81.10;;;;;;5037703;28;20036;-71
2021/05/23 01:45:15;;;;;;;1.85;0.50;;;11.40;81.60;;;;;;5029951;28;20029;-71
2021/05/23 01:47:41;;;;;;;2.88;0.77;;;11.40;81.90;;;;;;5035208;28;20586;-71
2021/05/23 01:50:07;;;;;;;0.80;0.50;;;11.30;82.20;;;;;;5048190;28;20036;-71
2021/05/23 01:52:33;;;;;;;3.22;0.73;;;11.40;82.50;;;;;;5039571;28;20029;-71
2021/05/23 01:54:59;;;;;;;1.27;0.47;;;11.30;82.80;;;;;;5042276;28;20037;-71
2021/05/23 01:57:25;;;;;;;3.88;0.95;;;11.30;83.10;;;;;;5031971;28;20053;-71
2021/05/23 01:59:51;;;;;;;2.60;0.80;;;11.30;83.60;;;;;;5044557;28;20506;-70
2021/05/23 02:02:17;;;;;;;2.55;0.47;;;11.30;84.00;;;;;;5031366;28;20034;-71
2021/05/23 02:04:42;;;;;;;1.48;0.60;;;11.20;84.30;;;;;;5035711;28;20415;-71
2021/05/23 02:07:09;;;;;;;2.38;0.75;;;11.30;84.70;;;;;;5039263;28;20538;-71
2021/05/23 02:09:34;;;;;;;1.67;0.80;;;11.30;84.40;;;;;;5037548;28;20390;-71
2021/05/23 02:12:00;;;;;;;1.75;0.60;;;11.30;84.60;;;;;;5021139;28;20033;-71
2021/05/23 02:14:26;;;;;;;2.58;0.60;;;11.20;84.90;;;;;;5040596;28;20082;-71
2021/05/23 02:16:54;;;;;;;2.15;0.47;;;11.20;85.40;;;;;;5034632;28;20068;-71
2021/05/23 02:19:21;;;;;;;1.15;0.50;;;11.20;85.90;;;;;;5050788;28;20029;-72
2021/05/23 02:21:49;;;;;;;1.52;0.60;;;11.20;86.40;;;;;;5039914;28;20029;-72
2021/05/23 02:24:15;;;;;;;1.05;0.60;;;11.20;86.60;;;;;;5049863;28;20037;-71
2021/05/23 02:26:42;;;;;;;3.38;0.63;;;11.20;87.30;;;;;;5050675;28;20029;-72
2021/05/23 02:29:07;;;;;;;0.60;0.40;;;11.20;88.40;;;;;;5041081;28;20075;-71
2021/05/23 02:31:34;;;;;;;3.22;0.68;;;11.20;90.60;;;;;;5033001;28;20038;-71
2021/05/23 02:34:03;;;;;;;1.75;0.52;;;11.10;92.10;;;;;;5035365;28;20124;-71
2021/05/23 02:36:29;;;;;;;2.92;0.55;;;11.10;96.20;;;;;;5033854;28;20413;-71
2021/05/23 02:38:55;;;;;;;2.03;0.50;;;10.90;97.10;;;;;;5048551;28;20036;-71
2021/05/23 02:41:21;;;;;;;2.47;0.57;;;10.60;98.40;;;;;;5044883;28;20108;-71
2021/05/23 02:43:46;;;;;;;1.38;0.47;;;10.20;99.90;;;;;;5048324;28;20029;-71
2021/05/23 02:46:12;;;;;;;0.38;0.20;;;10.20;99.90;;;;;;5052629;28;20040;-71
2021/05/23 02:48:38;;;;;;;1.80;0.40;;;9.90;99.90;;;;;;5046698;28;20029;-70
2021/05/23 02:51:04;;;;;;;1.23;0.38;;;9.60;99.90;;;;;;5034253;28;20017;-71
2021/05/23 02:53:30;;;;;;;2.08;0.60;;;9.30;99.90;;;;;;5020719;28;20049;-70
2021/05/23 02:55:55;;;;;;;1.10;0.32;;;9.10;99.90;;;;;;5044101;28;20494;-72
2021/05/23 02:58:22;;;;;;;0.20;0.20;;;8.90;99.90;;;;;;5041634;28;20084;-72
2021/05/23 03:00:48;;;;;;;1.60;0.32;;;8.80;99.90;;;;;;5039649;28;20108;-70
2021/05/23 03:03:15;;;;;;;2.97;0.50;;;8.70;99.90;;;;;;5049871;28;20105;-69
2021/05/23 03:05:45;;;;;;;0.30;0.20;;;8.60;99.90;;;;;;5038040;28;20112;-71
2021/05/23 03:08:11;;;;;;;0.32;0.30;;;8.60;99.90;;;;;;5052031;28;20051;-70
2021/05/23 03:10:42;;;;;;;2.20;0.40;;;8.60;99.90;;;;;;5051345;28;20037;-70
2021/05/23 03:13:09;;;;;;;0.90;0.40;;;8.50;99.90;;;;;;5049611;28;20040;-71
2021/05/23 03:15:36;;;;;;;0.73;0.25;;;8.50;99.90;;;;;;5043652;28;20390;-70
2021/05/23 03:18:03;;;;;;;0.55;0.32;;;8.50;99.90;;;;;;5023880;28;20040;-71
2021/05/23 03:20:30;;;;;;;1.95;0.20;;;8.50;99.90;;;;;;5051048;28;20437;-70
2021/05/23 03:22:58;;;;;;;1.55;0.15;;;8.50;99.90;;;;;;5052148;28;20726;-70
2021/05/23 03:25:25;;;;;;;0.80;0.10;;;8.40;99.90;;;;;;5037590;28;20124;-72
2021/05/23 03:27:51;;;;;;;1.13;0.20;;;8.40;99.90;;;;;;5034096;28;20036;-71
2021/05/23 03:30:21;;;;;;;1.88;0.30;;;8.40;99.90;;;;;;5050805;28;20127;-71
2021/05/23 03:32:47;;;;;;;0.45;0.20;;;8.30;99.90;;;;;;5040348;28;20029;-71
2021/05/23 03:35:13;;;;;;;1.50;0.22;;;8.30;99.90;;;;;;5040517;28;20029;-71
2021/05/23 03:37:39;;;;;;;0.47;0.10;;;8.30;99.90;;;;;;5046799;28;20037;-70
2021/05/23 03:40:06;;;;;;;0.52;0.20;;;8.30;99.90;;;;;;5045365;28;20039;-70
2021/05/23 03:42:32;;;;;;;0.20;0.20;;;8.30;99.90;;;;;;5049142;28;20459;-71
2021/05/23 03:44:58;;;;;;;0.47;0.30;;;8.30;99.90;;;;;;5036937;28;20036;-71
2021/05/23 03:47:23;;;;;;;0.95;0.28;;;8.30;99.90;;;;;;5027351;28;20030;-75
2021/05/23 03:49:49;;;;;;;0.30;0.20;;;8.30;99.90;;;;;;5050754;28;20028;-70
2021/05/23 03:52:15;;;;;;;0.55;0.22;;;8.30;99.90;;;;;;5050976;28;20029;-72
2021/05/23 03:54:40;;;;;;;0.65;0.30;;;8.30;99.90;;;;;;5049607;28;20021;-72
2021/05/23 03:57:07;;;;;;;0.20;0.20;;;8.30;99.90;;;;;;5041898;28;20049;-71
2021/05/23 03:59:33;;;;;;;0.30;0.20;;;8.40;99.90;;;;;;5037007;28;20033;-72
2021/05/23 04:01:59;;;;;;;1.15;0.50;;;8.40;99.90;;;;;;5042225;28;20120;-71
2021/05/23 04:04:35;;;;;;;0.85;0.17;;;8.50;99.90;;;;;;5046527;28;20108;-73
2021/05/23 04:07:01;;;;;;;0.50;0.17;;;8.60;99.90;;;;;;5042097;28;20438;-72
2021/05/23 04:09:26;;;;;;;0.93;0.20;;;8.60;99.90;;;;;;5040099;28;20061;-71
2021/05/23 04:11:52;;;;;;;1.58;0.20;;;8.60;99.90;;;;;;5029352;28;20036;-71
2021/05/23 04:14:18;;;;;;;1.08;0.17;;;8.70;99.90;;;;;;5035159;28;20040;-72
2021/05/23 04:16:43;;;;;;;1.42;0.30;;;8.70;99.90;;;;;;5032296;28;20017;-71
2021/05/23 04:19:09;;;;;;;1.35;0.20;;;8.80;99.90;;;;;;5043911;28;20037;-72
2021/05/23 04:21:35;;;;;;;4.85;0.47;;;8.80;99.90;;;;;;5034295;28;20117;-71
2021/05/23 04:24:02;;;;;;;1.48;0.50;;;8.80;99.90;;;;;;5053657;28;20083;-71
2021/05/23 04:26:28;;;;;;;2.55;0.38;;;8.90;99.90;;;;;;5032740;28;20033;-71
2021/05/23 04:28:54;;;;;;;0.43;0.28;;;9.00;99.90;;;;;;5042555;28;20072;-71
2021/05/23 04:31:19;;;;;;;1.48;0.43;;;9.00;99.90;;;;;;5043912;28;20068;-72
2021/05/23 04:33:45;;;;;;;1.42;0.30;;;9.00;99.90;;;;;;5047915;28;20040;-74
2021/05/23 04:36:11;;;;;;;1.65;0.30;;;9.10;99.90;;;;;;5046948;28;20032;-69
2021/05/23 04:38:36;;;;;;;0.80;0.40;;;9.10;99.90;;;;;;5043803;28;20519;-69
2021/05/23 04:41:02;;;;;;;0.85;0.35;;;9.10;99.90;;;;;;5039820;28;20029;-69
2021/05/23 04:43:28;;;;;;;0.95;0.30;;;9.10;99.90;;;;;;5038194;28;20029;-71
2021/05/23 04:45:54;;;;;;;1.80;0.30;;;9.20;99.90;;;;;;5050042;28;20021;-70
2021/05/23 04:48:20;;;;;;;0.57;0.20;;;9.20;99.90;;;;;;5048589;28;20024;-70
2021/05/23 04:50:46;;;;;;;1.85;0.45;;;9.20;99.90;;;;;;5051517;28;20668;-70
2021/05/23 04:53:12;;;;;;;1.30;0.30;;;9.30;99.90;;;;;;5049990;28;20033;-71
2021/05/23 04:55:38;;;;;;;0.57;0.32;;;9.30;99.90;;;;;;5045815;28;20041;-69
2021/05/23 04:58:03;;;;;;;0.93;0.30;;;9.30;99.90;;;;;;5027392;28;20460;-69
2021/05/23 05:00:30;;;;;;;1.05;0.43;;;9.30;99.90;;;;;;5034858;28;20029;-74
2021/05/23 05:02:55;;;;;;;0.65;0.32;;;9.40;99.90;;;;;;5038733;28;20029;-68
2021/05/23 05:05:21;;;;;;;0.93;0.30;;;9.40;99.90;;;;;;5043461;28;20382;-71
2021/05/23 05:07:47;;;;;;;1.35;0.40;;;9.40;99.90;;;;;;5044936;28;20064;-69
2021/05/23 05:10:13;;;;;;;2.33;0.60;;;9.50;99.90;;;;;;5033655;28;20049;-71
2021/05/23 05:12:40;;;;;;;1.40;0.70;;;9.50;99.90;;;;;;5041219;28;20021;-68
2021/05/23 05:15:07;;;;;;;1.05;0.32;;;9.60;99.90;;;;;;5050653;28;20033;-68
2021/05/23 05:17:33;;;;;;;0.93;0.50;;;9.70;99.90;;;;;;5045241;28;20026;-68
2021/05/23 05:19:58;;;;;;;1.30;0.38;;;9.80;99.90;;;;;;5031404;28;20457;-70
2021/05/23 05:22:24;;;;;;;3.65;0.47;;;9.80;99.90;;;;;;5037557;28;20100;-69
2021/05/23 05:24:50;;;;;;;3.72;0.47;;;9.80;99.90;;;;;;5044937;28;20064;-68
2021/05/23 05:27:15;;;;;;;0.35;0.17;;;9.90;99.90;;;;;;5041195;28;20075;-69
2021/05/23 05:29:41;;;;;;;0.40;0.30;;;9.90;99.90;;;;;;5036856;28;20033;-70
2021/05/23 05:32:07;;;;;;;0.88;0.40;;;9.90;99.90;;;;;;5042771;28;20036;-70
2021/05/23 05:34:32;;;;;;;4.00;0.50;;;10.00;99.90;;;;;;5040764;28;20483;-69
2021/05/23 05:36:58;;;;;;;4.63;0.70;;;10.00;99.90;;;;;;5035455;28;20487;-69
2021/05/23 05:39:24;;;;;;;2.08;0.22;;;10.10;99.90;;;;;;5051695;28;20463;-70
2021/05/23 05:41:49;;;;;;;1.05;0.40;;;10.20;99.90;;;;;;5045329;28;20032;-69
2021/05/23 05:44:15;;;;;;;2.80;0.50;;;10.30;99.90;;;;;;5053347;28;20025;-70
2021/05/23 05:46:41;;;;;;;1.15;0.47;;;10.30;99.90;;;;;;5052142;28;20459;-69
2021/05/23 05:49:07;;;;;;;2.03;0.32;;;10.30;99.90;;;;;;5047248;28;20079;-70
2021/05/23 05:51:33;;;;;;;1.00;0.30;;;10.30;99.90;;;;;;5045430;28;20470;-71
2021/05/23 05:53:58;;;;;;;1.77;0.50;;;10.30;99.90;;;;;;5051432;28;20037;-69
2021/05/23 05:56:24;;;;;;;0.60;0.50;;;10.30;99.90;;;;;;5036228;28;20087;-69
2021/05/23 05:58:50;;;;;;;0.43;0.30;;;10.30;99.90;;;;;;5038279;28;20040;-69
2021/05/23 06:01:16;;;;;;;1.70;0.30;;;10.30;99.90;;;;;;5043027;28;20025;-69
2021/05/23 06:03:41;;;;;;;1.42;0.50;;;10.30;99.90;;;;;;5034848;28;20099;-69
2021/05/23 06:06:07;;;;;;;7.10;0.40;;;10.40;99.90;;;;;;5050823;28;20413;-69
2021/05/23 06:08:36;;;;;;;0.40;0.30;;;10.40;99.90;;;;;;5047184;28;20078;-78
2021/05/23 06:11:05;;;;;;;1.27;0.68;;;10.50;99.90;;;;;;5053256;28;20040;-70
2021/05/23 06:13:30;;;;;;;1.20;0.30;;;10.60;99.90;;;;;;5023041;28;20385;-72
2021/05/23 06:15:56;;;;;;;1.33;0.70;;;10.60;99.90;;;;;;5034139;28;20029;-72
2021/05/23 06:18:26;;;;;;;1.70;0.43;;;10.60;99.90;;;;;;5038889;28;20044;-71
2021/05/23 06:20:53;;;;;;;0.93;0.45;;;10.60;99.90;;;;;;5051639;28;20044;-71
2021/05/23 06:23:19;;;;;;;0.57;0.30;;;10.70;99.90;;;;;;5049184;28;20035;-69
2021/05/23 06:25:45;;;;;;;1.70;0.40;;;10.80;99.90;;;;;;5042400;28;20478;-69
2021/05/23 06:28:11;;;;;;;1.33;0.30;;;10.90;99.90;;;;;;5045264;28;20067;-68
2021/05/23 06:30:36;;;;;;;2.38;0.30;;;11.00;99.90;;;;;;5049506;28;20072;-70
2021/05/23 06:33:02;;;;;;;0.63;0.43;;;11.10;99.90;;;;;;5048571;28;20160;-68
2021/05/23 06:35:30;;;;;;;1.50;0.45;;;11.10;99.90;;;;;;5052024;28;20078;-71
2021/05/23 06:37:56;;;;;;;1.88;0.40;;;11.30;99.90;;;;;;5049013;28;20036;-67
2021/05/23 06:40:21;;;;;;;1.35;0.30;;;11.40;98.60;;;;;;5052141;28;20385;-70
2021/05/23 06:42:47;;;;;;;0.95;0.47;;;11.50;96.40;;;;;;5051430;28;20544;-74
2021/05/23 06:45:13;;;;;;;2.13;1.10;;;11.60;96.70;;;;;;5040519;28;20076;-68
2021/05/23 06:47:39;;;;;;;1.52;0.40;;;11.60;94.50;;;;;;5036958;28;20036;-68
2021/05/23 06:50:06;;;;;;;1.50;0.43;;;11.70;94.40;;;;;;5045036;28;20481;-72
2021/05/23 06:52:31;;;;;;;1.38;0.45;;;11.80;94.00;;;;;;5049357;28;20109;-68
2021/05/23 06:54:57;;;;;;;0.82;0.40;;;11.80;93.30;;;;;;5048782;28;20486;-69
2021/05/23 06:57:23;;;;;;;3.40;0.50;;;11.90;92.70;;;;;;5046414;28;20056;-69
2021/05/23 06:59:49;;;;;;;0.98;0.40;;;11.90;92.60;;;;;;5058474;28;20370;-70
2021/05/23 07:02:14;;;;;;;0.93;0.30;;;11.90;92.60;;;;;;5051424;28;20052;-71
2021/05/23 07:04:40;;;;;;;0.65;0.40;;;12.00;92.40;;;;;;5047985;28;20024;-72
2021/05/23 07:07:05;;;;;;;1.00;0.45;;;12.10;92.40;;;;;;5033419;28;20047;-71
2021/05/23 07:09:31;;;;;;;1.27;0.40;;;12.20;92.20;;;;;;5051618;28;20029;-72
2021/05/23 07:11:57;;;;;;;0.75;0.40;;;12.30;91.50;;;;;;5045499;28;20044;-72
2021/05/23 07:14:22;;;;;;;1.35;0.38;;;12.30;90.70;;;;;;5044233;28;20389;-76
2021/05/23 07:16:48;;;;;;;1.10;0.43;;;12.40;90.40;;;;;;5047846;28;21923;-72
2021/05/23 07:19:13;;;;;;;2.33;0.80;;;12.30;90.80;;;;;;5048291;28;20356;-72
2021/05/23 07:21:39;;;;;;;1.20;0.50;;;12.30;90.90;;;;;;5046472;28;20040;-74
2021/05/23 07:24:05;;;;;;;1.92;0.80;;;12.30;89.30;;;;;;5047046;28;20489;-73
2021/05/23 07:26:31;;;;;;;2.25;0.77;;;12.40;88.50;;;;;;5037917;28;20107;-72
2021/05/23 07:28:56;;;;;;;1.13;0.55;;;12.70;84.10;;;;;;5050743;28;20097;-71
2021/05/23 07:31:22;;;;;;;2.67;0.63;;;12.90;84.00;;;;;;5047927;28;20037;-71
2021/05/23 07:33:48;;;;;;;1.55;0.52;;;13.10;80.20;;;;;;5048859;28;20035;-70
2021/05/23 07:36:13;;;;;;;1.70;0.38;;;13.20;80.40;;;;;;5050616;28;20029;-70
2021/05/23 07:38:40;;;;;;;3.50;0.60;;;13.10;80.20;;;;;;5051524;28;20033;-70
2021/05/23 07:41:06;;;;;;;1.13;0.30;;;13.10;79.60;;;;;;5048678;28;20025;-69
2021/05/23 07:43:32;;;;;;;1.20;0.47;;;13.00;81.00;;;;;;5033737;28;20437;-70
2021/05/23 07:45:58;;;;;;;1.60;0.35;;;13.00;81.40;;;;;;5046648;28;20874;-69
2021/05/23 07:48:24;;;;;;;1.90;0.40;;;12.80;84.70;;;;;;5041883;28;20037;-72
2021/05/23 07:50:50;;;;;;;7.68;1.20;;;12.60;86.60;;;;;;5041201;28;20539;-68
2021/05/23 07:53:16;;;;;;;2.95;0.82;;;12.30;92.40;;;;;;5040888;28;20030;-71
2021/05/23 07:55:42;;;;;;;1.63;0.40;;;11.40;95.00;;;;;;5048806;28;20025;-74
2021/05/23 07:58:08;;;;;;;1.88;0.40;;;10.50;99.90;;;;;;5036154;28;20054;-72
2021/05/23 08:00:33;;;;;;;0.60;0.50;;;9.80;99.90;;;;;;5041211;28;20052;-70
2021/05/23 08:02:59;;;;;;;2.72;0.60;;;9.20;99.90;;;;;;5032731;28;20035;-70
2021/05/23 08:05:27;;;;;;;3.35;0.80;;;8.90;99.90;;;;;;5040622;28;20029;-70
2021/05/23 08:07:53;;;;;;;2.58;0.70;;;8.60;99.90;;;;;;5041172;28;20100;-69
2021/05/23 08:10:19;;;;;;;1.42;0.40;;;8.30;99.90;;;;;;5035218;28;20386;-69
2021/05/23 08:12:45;;;;;;;0.80;0.60;;;8.20;99.90;;;;;;5033172;28;20033;-73
2021/05/23 08:15:12;;;;;;;2.35;0.93;;;8.20;99.90;;;;;;5041536;28;20033;-69
2021/05/23 08:17:40;;;;;;;2.25;0.70;;;8.10;99.90;;;;;;5047564;28;20036;-76
2021/05/23 08:20:07;;;;;;;2.28;0.68;;;8.20;99.90;;;;;;5050992;28;20082;-70
2021/05/23 08:22:33;;;;;;;3.00;0.52;;;8.40;99.90;;;;;;5048407;28;20029;-69
2021/05/23 08:25:01;;;;;;;2.17;0.30;;;8.60;99.90;;;;;;5024921;28;20629;-73
2021/05/23 08:27:27;;;;;;;5.72;0.82;;;8.80;99.90;;;;;;5045598;28;20037;-70
2021/05/23 08:29:52;;;;;;;0.88;0.50;;;9.00;99.90;;;;;;5048166;28;20355;-70
2021/05/23 08:32:19;;;;;;;1.50;0.40;;;9.20;99.90;;;;;;5041745;28;20167;-69
2021/05/23 08:34:45;;;;;;;4.20;1.73;;;9.40;99.90;;;;;;5047585;28;20033;-73
2021/05/23 08:37:10;;;;;;;3.13;0.50;;;9.60;99.90;;;;;;5045174;28;20039;-70
2021/05/23 08:39:36;;;;;;;1.88;0.40;;;9.80;99.90;;;;;;5042317;28;20036;-70
2021/05/23 08:42:02;;;;;;;2.78;0.60;;;10.20;99.90;;;;;;5048742;28;20036;-73
2021/05/23 08:44:27;;;;;;;3.80;0.57;;;10.20;99.90;;;;;;5041876;28;20496;-70
2021/05/23 08:46:53;;;;;;;1.38;0.50;;;10.40;99.90;;;;;;5034183;28;20029;-70
2021/05/23 08:49:21;;;;;;;2.28;0.63;;;11.00;99.90;;;;;;5032605;28;20103;-70
2021/05/23 08:51:49;;;;;;;1.45;0.50;;;11.20;99.90;;;;;;5031974;28;20522;-70
2021/05/23 08:54:16;;;;;;;2.03;0.80;;;11.40;99.90;;;;;;5017908;28;20029;-70
2021/05/23 08:56:42;;;;;;;1.98;0.80;;;11.50;99.90;;;;;;5040016;28;20087;-74
2021/05/23 08:59:09;;;;;;;2.85;1.13;;;11.60;99.90;;;;;;5050707;28;20095;-73
2021/05/23 09:01:36;;;;;;;2.55;0.77;;;11.60;99.90;;;;;;5048479;28;20028;-72
2021/05/23 09:04:07;;;;;;;2.13;0.70;;;11.70;99.90;;;;;;5033297;28;20036;-72
2021/05/23 09:06:38;;;;;;;2.42;0.65;;;11.80;99.90;;;;;;5046684;28;20036;-72
2021/05/23 09:09:06;;;;;;;2.78;0.40;;;12.00;99.90;;;;;;5049943;28;20029;-73
2021/05/23 09:11:32;;;;;;;1.13;0.45;;;11.90;99.90;;;;;;5029414;28;20033;-72
2021/05/23 09:13:58;;;;;;;3.25;0.50;;;12.00;99.90;;;;;;5041047;28;20140;-72
2021/05/23 09:16:24;;;;;;;3.45;0.85;;;12.00;99.90;;;;;;5042701;28;20099;-72
2021/05/23 09:18:57;;;;;;;2.05;0.52;;;11.90;99.90;;;;;;5051921;28;20029;-72
2021/05/23 09:21:34;;;;;;;1.95;0.50;;;11.80;99.90;;;;;;5048965;28;20025;-71
2021/05/23 09:24:06;;;;;;;3.15;0.60;;;11.60;99.90;;;;;;5036274;28;20033;-71
2021/05/23 09:26:39;;;;;;;1.20;0.52;;;11.50;99.90;;;;;;5052994;28;20021;-72
2021/05/23 09:29:17;;;;;;;20.02;2.22;;;11.50;99.90;;;;;;5047469;28;20556;-72
2021/05/23 09:31:46;;;;;;;3.17;1.20;;;11.40;99.90;;;;;;5034879;28;20034;-72
2021/05/23 09:34:27;;;;;;;6.45;1.25;;;11.40;99.90;;;;;;5035544;28;20037;-73
2021/05/23 09:36:54;;;;;;;0.98;0.85;;;11.40;99.90;;;;;;5040547;28;20049;-70
2021/05/23 09:39:20;;;;;;;1.75;0.60;;;11.50;99.90;;;;;;5055283;28;20074;-80
2021/05/23 09:41:46;;;;;;;2.78;0.63;;;11.50;99.90;;;;;;5036545;28;20026;-76
2021/05/23 09:44:18;;;;;;;2.30;0.50;;;11.50;99.90;;;;;;5049150;28;20029;-71
2021/05/23 09:47:04;;;;;;;3.10;0.70;;;11.60;99.90;;;;;;5040271;28;20025;-73
2021/05/23 09:49:43;;;;;;;1.30;0.60;;;11.50;99.90;;;;;;5042701;28;20374;-70
2021/05/23 09:52:11;;;;;;;1.67;0.52;;;11.60;99.90;;;;;;5041752;28;20032;-70
2021/05/23 09:54:50;;;;;;;1.05;0.40;;;11.50;99.90;;;;;;5043679;28;20040;-73
2021/05/23 09:57:19;;;;;;;2.78;0.38;;;11.40;98.80;;;;;;5048534;28;20401;-69
2021/05/23 09:59:45;;;;;;;2.10;0.33;;;11.10;99.90;;;;;;5043990;28;20040;-71
2021/05/23 10:02:12;;;;;;;3.13;0.30;;;10.90;99.90;;;;;;5040304;28;20291;-72
2021/05/23 10:04:40;;;;;;;1.15;0.50;;;10.90;99.90;;;;;;5029580;28;20021;-71
2021/05/23 10:07:11;;;;;;;2.05;0.60;;;11.00;99.90;;;;;;5050874;28;20036;-72
2021/05/23 10:09:38;;;;;;;2.58;0.52;;;11.20;99.90;;;;;;5052499;28;20033;-72
2021/05/23 10:12:08;;;;;;;1.27;0.52;;;11.50;99.90;;;;;;5045500;28;20029;-72
2021/05/23 10:14:34;;;;;;;2.65;0.60;;;11.80;99.90;;;;;;5048040;28;20036;-75
2021/05/23 10:17:01;;;;;;;0.73;0.43;;;12.40;92.00;;;;;;5048790;28;20090;-71
2021/05/23 10:19:30;;;;;;;1.20;0.55;;;12.50;91.30;;;;;;5046607;28;20040;-72
2021/05/23 10:21:57;;;;;;;2.65;0.45;;;12.90;90.60;;;;;;5037044;28;20039;-72
2021/05/23 10:24:29;;;;;;;2.42;0.60;;;13.10;87.20;;;;;;5034290;28;20039;-71
2021/05/23 10:27:01;;;;;;;1.35;0.47;;;13.40;90.10;;;;;;5047860;28;20128;-71
2021/05/23 10:29:27;;;;;;;2.10;0.50;;;13.70;82.30;;;;;;5042420;28;20037;-72
2021/05/23 10:32:13;;;;;;;2.08;0.63;;;14.00;76.30;;;;;;5049847;28;20037;-73
2021/05/23 10:34:45;;;;;;;1.65;0.50;;;14.30;75.20;;;;;;5053584;28;20056;-73
2021/05/23 10:37:38;;;;;;;4.13;0.68;;;14.60;73.80;;;;;;5051559;28;20044;-72
2021/05/23 10:40:14;;;;;;;2.20;0.60;;;14.90;72.60;;;;;;5048649;28;20592;-72
2021/05/23 10:42:50;;;;;;;1.20;0.60;;;15.20;71.20;;;;;;5025024;28;20363;-72
2021/05/23 10:45:48;;;;;;;3.30;0.50;;;15.70;69.40;;;;;;5034247;28;20026;-72
2021/05/23 10:48:18;;;;;;;2.53;0.65;;;16.20;63.00;;;;;;5002883;28;20120;-72
2021/05/23 10:50:45;;;;;;;;;;;16.50;63.20;;;;;;5039715;28;20030;-73
2021/05/23 10:53:11;;;;;;;2.58;0.60;;;16.60;60.00;;;;;;5041761;28;19921;-75
2021/05/23 10:55:53;;;;;;;2.28;0.52;;;16.50;58.90;;;;;;5050560;28;20060;-73
2021/05/23 10:58:26;;;;;;;1.67;0.60;;;16.20;62.40;;;;;;5043704;28;20048;-72
2021/05/23 11:00:57;;;;;;;1.77;0.40;;;15.90;64.80;;;;;;5033047;28;20112;-72
2021/05/23 11:03:25;;;;;;;;;;;15.70;65.30;;;;;;5034538;28;20029;-72
2021/05/23 11:06:05;;;;;;;1.45;0.52;;;15.50;65.80;;;;;;5034179;28;20294;-73
2021/05/23 11:08:32;;;;;;;2.42;0.55;;;15.50;66.30;;;;;;5038677;28;20471;-72
2021/05/23 11:10:58;;;;;;;1.75;0.90;;;15.30;66.10;;;;;;5033078;28;20077;-72
2021/05/23 11:13:27;;;;;;;3.72;0.60;;;15.20;65.90;;;;;;5039597;28;20451;-72
2021/05/23 11:15:53;;;;;;;2.63;0.60;;;15.00;66.50;;;;;;5049040;28;20454;-73
2021/05/23 11:18:24;;;;;;;2.10;0.70;;;14.90;68.00;;;;;;5050881;28;20032;-73
2021/05/23 11:21:00;;;;;;;1.80;0.65;;;14.70;68.10;;;;;;5044798;28;20430;-73
2021/05/23 11:23:27;;;;;;;1.52;0.60;;;14.70;68.20;;;;;;5044779;28;20052;-73
2021/05/23 11:26:06;;;;;;;2.80;0.60;;;14.70;65.80;;;;;;5045632;28;20525;-73
2021/05/23 11:28:32;;;;;;;2.10;0.50;;;14.60;66.70;;;;;;5051968;28;20494;-74
2021/05/23 11:30:58;;;;;;;1.58;0.68;;;14.80;65.80;;;;;;5020183;28;20037;-72
2021/05/23 11:33:24;;;;;;;5.65;1.67;;;15.00;65.50;;;;;;5049183;28;20029;-73
2021/05/23 11:35:52;;;;;;;5.05;0.50;;;15.10;65.40;;;;;;5043678;28;20029;-74
2021/05/23 11:38:19;;;;;;;1.08;0.30;;;15.30;63.80;;;;;;5036717;28;20036;-73
2021/05/23 11:40:44;;;;;;;1.85;0.30;;;15.40;62.60;;;;;;5050122;28;20080;-73
2021/05/23 11:43:18;;;;;;;1.35;0.43;;;15.60;62.10;;;;;;5036493;28;20061;-74
2021/05/23 11:45:53;;;;;;;0.95;0.75;;;16.00;62.80;;;;;;5051236;28;20021;-73
2021/05/23 11:48:35;;;;;;;1.25;0.57;;;16.30;61.10;;;;;;5051469;28;20029;-74
2021/05/23 11:51:03;;;;;;;0.85;0.30;;;16.70;58.20;;;;;;5032186;28;20489;-74
2021/05/23 11:53:45;;;;;;;1.60;0.20;;;16.90;55.60;;;;;;5040914;28;20033;-72
2021/05/23 11:56:24;;;;;;;0.40;0.20;;;16.90;56.40;;;;;;5035749;28;20056;-75
2021/05/23 11:58:53;;;;;;;0.53;0.27;;;16.90;54.20;;;;;;5042145;28;20040;-74
2021/05/23 12:01:26;;;;;;;0.57;0.45;;;17.00;54.10;;;;;;5040979;28;20502;-74
2021/05/23 12:04:03;;;;;;;0.88;0.40;;;17.30;54.20;;;;;;5032096;28;20037;-73
2021/05/23 12:06:31;;;;;;;2.58;0.45;;;17.60;52.90;;;;;;5041588;28;20542;-72
2021/05/23 12:09:13;;;;;;;1.67;0.45;;;17.90;51.10;;;;;;5037501;28;20535;-74
2021/05/23 12:11:48;;;;;;;1.45;0.40;;;18.20;50.40;;;;;;5044341;28;20037;-73
2021/05/23 12:14:31;;;;;;;2.85;0.30;;;18.40;50.30;;;;;;5049098;28;20029;-73
2021/05/23 12:17:11;;;;;;;0.93;0.25;;;18.80;50.20;;;;;;5045283;28;20030;-74
2021/05/23 12:19:52;;;;;;;1.90;0.50;;;18.70;48.90;;;;;;5041271;28;20048;-72
2021/05/23 12:22:27;;;;;;;0.63;0.63;;;18.80;50.20;;;;;;5032587;28;20053;-72
2021/05/23 12:24:58;;;;;;;1.23;0.70;;;18.80;50.40;;;;;;5039872;28;20059;-74
2021/05/23 12:27:29;;;;;;;1.23;0.40;;;19.20;50.50;;;;;;5040720;28;20059;-73
2021/05/23 12:30:16;;;;;;;1.90;0.57;;;19.60;48.50;;;;;;5042146;28;20074;-73
2021/05/23 12:32:53;;;;;;;1.52;0.30;;;20.10;46.50;;;;;;5035975;28;20037;-73
2021/05/23 12:35:25;;;;;;;1.27;0.40;;;20.20;45.80;;;;;;5037230;28;20032;-73
2021/05/23 12:37:55;;;;;;;2.05;0.65;;;20.40;44.40;;;;;;5045603;28;20087;-73
2021/05/23 12:40:30;;;;;;;1.65;0.30;;;20.30;44.30;;;;;;5043823;28;20082;-73
2021/05/23 12:43:11;;;;;;;1.65;0.35;;;19.80;46.70;;;;;;5043261;28;20532;-73
2021/05/23 12:45:38;;;;;;;1.63;0.50;;;19.20;47.40;;;;;;5047212;28;20025;-73
2021/05/23 12:48:09;;;;;;;1.38;0.43;;;18.70;49.50;;;;;;5057880;28;20025;-73
2021/05/23 12:50:47;;;;;;;3.97;0.60;;;18.40;50.40;;;;;;5039805;28;20517;-74
2021/05/23 12:53:31;;;;;;;2.40;0.70;;;18.30;51.10;;;;;;5031024;28;20033;-74
2021/05/23 12:56:14;;;;;;;1.52;0.50;;;18.70;51.10;;;;;;5013852;28;20064;-74